Terminal Aerodrome Forecast
Issued by NWS

Current Version | Previous Version | Graphics & Text | Print | Product List | Glossary On
Versions: 1 2 3 4 5 6 7 8 9 10 11 12 13 14 15 16 17 18 19 20 21 22 23
000
FTUS41 KILN 221135
TAFLCK
TAF
KLCK 221135Z 2212/2312 20005KT P6SM BKN110
     FM221500 21010KT P6SM BKN250
     FM222000 20012G20KT P6SM SCT050 BKN250
     FM230200 18011KT P6SM VCSH OVC050
     FM230400 19011KT 5SM -SHRA BR OVC018
     FM230800 21010KT P6SM OVC012=

USA.gov is the U.S. government's official web portal to all federal, state and local government web resources and services.